KAFJ

Washington County Airport

Washington, Pennsylvania, USA
METAR KAFJ 191456Z AUTO 21008KT 170V240 10SM CLR M02/M11 A3015 RMK AO2 SLP225 T10221106 58000 FZRANO
Observed Flight Rules
Jan-19 @ 14:56 UTC (36 minutes ago) Visual Flight Rules
Wind Visibility Clouds
210° at 8 knots 10 miles
  • Clear skies
Temperatures Readings
Current -2°C / 28°F
Dewpoint -11°C / 12°F
Humidity 51%
Altimeter 30.15" Hg
Pressure 1022.5 hPa
Elevation 361
METAR KAFJ 191456Z AUTO 21008KT 170V240 10SM CLR M02/M11 A3015 RMK AO2 SLP225 T10221106 58000 FZRANO
Observed Flight Rules
Jan-19 @ 14:56 UTC
(36 minutes ago)
VFR
Wind Visibility
210° at 8 knots 10 miles
Clouds
  • Clear skies
Temperature Dewpoint
-2°C / 28°F -11°C / 12°F
Humidity Altimeter Pressure
51% 30.15" Hg 1022.5 hPa